Time;durP1;ratioP1;P1;durP2;ratioP2;P2;SDS_P1;SDS_P2;PMS_P1;PMS_P2;Temp;Humidity;BMP_temperature;BMP_pressure;BME280_temperature;BME280_humidity;BME280_pressure;Samples;Min_cycle;Max_cycle;Signal;HPM_P1;HPM_P2
2023/05/01 00:00:49;;;;;;;8.40;8.17;;;21.30;54.30;;;;;;5072752;28;20553;-57
2023/05/01 00:03:17;;;;;;;7.60;7.50;;;21.30;54.30;;;;;;5072687;28;20561;-55
2023/05/01 00:05:44;;;;;;;7.50;7.30;;;21.30;54.30;;;;;;5072696;28;20482;-56
2023/05/01 00:08:12;;;;;;;7.30;7.20;;;21.30;54.40;;;;;;5072033;28;20471;-57
2023/05/01 00:10:40;;;;;;;7.70;7.50;;;21.30;54.40;;;;;;5072478;28;20546;-52
2023/05/01 00:13:08;;;;;;;8.00;7.70;;;21.30;54.40;;;;;;5072623;28;20522;-53
2023/05/01 00:15:35;;;;;;;7.90;7.70;;;21.20;54.40;;;;;;5072459;28;20440;-58
2023/05/01 00:18:02;;;;;;;8.10;7.90;;;21.20;54.50;;;;;;5072236;28;20526;-55
2023/05/01 00:20:29;;;;;;;8.53;8.33;;;21.20;54.40;;;;;;5071918;28;20494;-55
2023/05/01 00:22:56;;;;;;;8.07;7.67;;;21.20;54.50;;;;;;5071555;28;20501;-54
2023/05/01 00:25:23;;;;;;;7.23;7.03;;;21.20;54.60;;;;;;5071996;28;20978;-57
2023/05/01 00:27:51;;;;;;;7.80;7.60;;;21.20;54.60;;;;;;5072135;28;20546;-55
2023/05/01 00:30:18;;;;;;;7.80;7.60;;;21.20;54.70;;;;;;5071844;28;20629;-56
2023/05/01 00:32:45;;;;;;;7.27;7.07;;;21.20;54.70;;;;;;5072298;28;20519;-57
2023/05/01 00:35:12;;;;;;;7.60;7.40;;;21.20;54.70;;;;;;5072090;28;20478;-55
2023/05/01 00:37:39;;;;;;;8.13;7.93;;;21.20;54.70;;;;;;5071992;28;20530;-56
2023/05/01 00:40:07;;;;;;;8.50;8.23;;;21.20;54.70;;;;;;5072043;28;21032;-56
2023/05/01 00:42:36;;;;;;;7.50;7.30;;;21.20;54.80;;;;;;5071708;28;20530;-58
2023/05/01 00:45:05;;;;;;;7.77;7.57;;;21.20;54.80;;;;;;5072050;28;20458;-57
2023/05/01 00:47:32;;;;;;;7.70;7.50;;;21.20;54.80;;;;;;5071772;28;20451;-54
2023/05/01 00:50:00;;;;;;;7.30;7.20;;;21.20;54.80;;;;;;5071929;28;20482;-52
2023/05/01 00:52:27;;;;;;;7.80;7.60;;;21.10;54.80;;;;;;5071971;28;20530;-60
2023/05/01 00:54:54;;;;;;;7.50;7.30;;;21.10;54.80;;;;;;5071480;28;20542;-58
2023/05/01 00:57:21;;;;;;;7.37;7.27;;;21.10;54.80;;;;;;5071837;28;20893;-54
2023/05/01 00:59:49;;;;;;;6.90;6.80;;;21.10;54.90;;;;;;5071746;28;20462;-53
2023/05/01 01:02:17;;;;;;;8.00;7.80;;;21.10;54.90;;;;;;5071673;28;20566;-55
2023/05/01 01:04:46;;;;;;;7.90;7.70;;;21.10;54.90;;;;;;5071444;28;20964;-53
2023/05/01 01:07:20;;;;;;;7.60;7.40;;;21.10;55.00;;;;;;5071712;28;20522;-55
2023/05/01 01:09:58;;;;;;;7.97;7.77;;;21.10;55.00;;;;;;5071532;28;20461;-57
2023/05/01 01:12:31;;;;;;;7.20;7.10;;;21.10;55.10;;;;;;5071511;28;20534;-53
2023/05/01 01:15:08;;;;;;;7.73;7.57;;;21.10;55.10;;;;;;5071655;28;20965;-53
2023/05/01 01:17:44;;;;;;;6.87;6.77;;;21.10;55.10;;;;;;5071444;28;20984;-52
2023/05/01 01:20:36;;;;;;;7.57;7.43;;;21.10;55.20;;;;;;5071558;28;20558;-59
2023/05/01 01:23:33;;;;;;;7.30;7.20;;;21.10;55.20;;;;;;5071203;28;20479;-57
2023/05/01 01:26:12;;;;;;;7.80;7.60;;;21.00;55.10;;;;;;5071687;28;20629;-55
2023/05/01 01:29:16;;;;;;;7.67;7.47;;;21.00;55.20;;;;;;5071342;28;20522;-57
2023/05/01 01:31:54;;;;;;;7.47;7.30;;;21.00;55.20;;;;;;5070800;28;20550;-55
2023/05/01 01:34:26;;;;;;;7.40;7.30;;;21.00;55.30;;;;;;5074694;28;20864;-53
2023/05/01 01:37:01;;;;;;;7.30;7.10;;;21.00;55.30;;;;;;5075653;28;20450;-55
2023/05/01 01:39:36;;;;;;;7.70;7.53;;;21.00;55.30;;;;;;5075096;28;20946;-55
2023/05/01 01:42:08;;;;;;;7.60;7.40;;;21.00;55.30;;;;;;5075437;28;20525;-54
2023/05/01 01:44:42;;;;;;;7.10;7.00;;;21.00;55.40;;;;;;5075466;28;20450;-55
2023/05/01 01:47:12;;;;;;;7.50;7.30;;;21.00;55.40;;;;;;5075399;28;20537;-52
2023/05/01 01:49:46;;;;;;;7.80;7.60;;;21.00;55.40;;;;;;5075068;28;20543;-53
2023/05/01 01:52:16;;;;;;;7.00;6.90;;;21.00;55.40;;;;;;5035460;28;20472;-56
2023/05/01 01:54:48;;;;;;;7.60;7.40;;;21.00;55.50;;;;;;5035163;28;20552;-56
2023/05/01 01:57:18;;;;;;;7.23;7.00;;;20.90;55.40;;;;;;5035259;28;20477;-54
2023/05/01 01:59:47;;;;;;;7.70;7.40;;;20.90;55.40;;;;;;5034978;28;20528;-53
2023/05/01 02:02:15;;;;;;;6.83;6.73;;;20.90;55.40;;;;;;5049319;28;20538;-52
2023/05/01 02:04:45;;;;;;;7.90;7.63;;;20.90;55.40;;;;;;5074879;28;20505;-58
2023/05/01 02:07:14;;;;;;;7.90;7.60;;;20.90;55.40;;;;;;5074990;28;20530;-56
2023/05/01 02:09:43;;;;;;;7.37;7.17;;;20.90;55.50;;;;;;5074657;28;20530;-55
2023/05/01 02:12:12;;;;;;;7.60;7.40;;;20.90;55.50;;;;;;5074922;28;20542;-57
2023/05/01 02:14:41;;;;;;;7.03;6.93;;;20.90;55.50;;;;;;5074367;28;20534;-56
2023/05/01 02:17:09;;;;;;;7.07;6.87;;;20.90;55.60;;;;;;5074977;28;20486;-56
2023/05/01 02:19:39;;;;;;;7.60;7.40;;;20.90;55.50;;;;;;5074548;28;20438;-57
2023/05/01 02:22:08;;;;;;;7.50;7.40;;;20.90;55.60;;;;;;5074705;28;20470;-56
2023/05/01 02:24:37;;;;;;;7.37;7.27;;;20.90;55.60;;;;;;5074497;28;20479;-57
2023/05/01 02:27:08;;;;;;;7.13;7.03;;;20.90;55.60;;;;;;5074314;28;20451;-55
2023/05/01 02:29:35;;;;;;;7.57;7.37;;;20.90;55.60;;;;;;5074370;28;20486;-58
2023/05/01 02:32:02;;;;;;;7.40;7.20;;;20.90;55.60;;;;;;5074371;28;20545;-55
2023/05/01 02:34:29;;;;;;;6.93;6.83;;;20.90;55.70;;;;;;5074241;28;20440;-58
2023/05/01 02:36:56;;;;;;;7.30;7.10;;;20.90;55.70;;;;;;5074272;28;20995;-53
2023/05/01 02:39:24;;;;;;;6.90;6.77;;;20.80;55.60;;;;;;5074207;28;20489;-56
2023/05/01 02:41:55;;;;;;;7.10;7.00;;;20.80;55.60;;;;;;5074326;28;20911;-56
2023/05/01 02:44:24;;;;;;;7.07;6.87;;;20.80;55.60;;;;;;5073137;28;20486;-58
2023/05/01 02:46:53;;;;;;;6.93;6.83;;;20.80;55.60;;;;;;5074259;28;20479;-55
2023/05/01 02:49:20;;;;;;;7.20;7.10;;;20.80;55.60;;;;;;5074112;28;20630;-54
2023/05/01 02:51:48;;;;;;;7.10;6.90;;;20.80;55.70;;;;;;5074119;28;20506;-55
2023/05/01 02:54:15;;;;;;;7.20;7.00;;;20.80;55.70;;;;;;5073887;28;20543;-52
2023/05/01 02:56:44;;;;;;;6.43;6.20;;;20.80;55.70;;;;;;5074086;28;20447;-55
2023/05/01 02:59:10;;;;;;;8.70;8.50;;;20.80;55.70;;;;;;5073969;28;20867;-56
2023/05/01 03:01:38;;;;;;;8.60;8.40;;;20.80;55.70;;;;;;5073884;28;20554;-53
2023/05/01 03:04:05;;;;;;;7.40;7.23;;;20.80;55.80;;;;;;5073894;28;20490;-54
2023/05/01 03:06:32;;;;;;;7.80;7.60;;;20.80;55.80;;;;;;5073603;28;21011;-58
2023/05/01 03:08:59;;;;;;;7.50;7.30;;;20.80;55.80;;;;;;5073893;28;20526;-54
2023/05/01 03:11:26;;;;;;;7.60;7.40;;;20.80;55.80;;;;;;5073799;28;20471;-56
2023/05/01 03:13:55;;;;;;;7.50;7.40;;;20.80;55.80;;;;;;5073509;28;20450;-53
2023/05/01 03:16:22;;;;;;;7.90;7.70;;;20.80;55.80;;;;;;5073768;28;20948;-54
2023/05/01 03:18:49;;;;;;;7.20;7.00;;;20.80;55.80;;;;;;5073716;28;20511;-54
2023/05/01 03:21:16;;;;;;;7.70;7.37;;;20.80;55.80;;;;;;5073530;28;20910;-56
2023/05/01 03:23:42;;;;;;;7.20;7.10;;;20.80;55.80;;;;;;5073487;28;20838;-56
2023/05/01 03:26:09;;;;;;;7.30;7.10;;;20.80;55.90;;;;;;5072894;28;21043;-56
2023/05/01 03:28:36;;;;;;;6.90;6.80;;;20.80;55.90;;;;;;5073206;28;20440;-57
2023/05/01 03:31:05;;;;;;;7.03;6.93;;;20.80;55.90;;;;;;5073350;28;20565;-57
2023/05/01 03:33:31;;;;;;;7.57;7.37;;;20.70;55.80;;;;;;5073421;28;20474;-55
2023/05/01 03:36:02;;;;;;;7.23;7.07;;;20.70;55.80;;;;;;5073132;28;20478;-55
2023/05/01 03:38:30;;;;;;;6.90;6.80;;;20.70;55.80;;;;;;5072930;28;20455;-56
2023/05/01 03:40:57;;;;;;;7.70;7.50;;;20.70;55.80;;;;;;5073128;28;20550;-57
2023/05/01 03:43:25;;;;;;;7.20;7.10;;;20.70;55.90;;;;;;5073064;28;20565;-60
2023/05/01 03:45:52;;;;;;;6.60;6.50;;;20.70;55.90;;;;;;5073257;28;20543;-56
2023/05/01 03:48:21;;;;;;;7.30;7.13;;;20.70;55.80;;;;;;5072505;28;20526;-58
2023/05/01 03:50:47;;;;;;;7.47;7.37;;;20.70;55.80;;;;;;5065481;28;20883;-56
2023/05/01 03:53:15;;;;;;;7.60;7.40;;;20.70;55.80;;;;;;5072985;28;20483;-55
2023/05/01 03:55:42;;;;;;;7.93;7.83;;;20.70;55.90;;;;;;5072737;28;20478;-55
2023/05/01 03:58:10;;;;;;;9.40;9.17;;;20.70;56.40;;;;;;5071769;28;20539;-58
2023/05/01 04:00:37;;;;;;;8.03;7.83;;;20.70;55.90;;;;;;5072214;28;20475;-57
2023/05/01 04:03:05;;;;;;;7.77;7.60;;;20.70;55.90;;;;;;5071929;28;20550;-56
2023/05/01 04:05:33;;;;;;;7.63;7.43;;;20.70;55.90;;;;;;5072391;28;20957;-55
2023/05/01 04:08:00;;;;;;;8.20;8.00;;;20.70;55.90;;;;;;5072523;28;20443;-58
2023/05/01 04:10:27;;;;;;;8.60;8.40;;;20.70;56.20;;;;;;5071758;28;20546;-52
2023/05/01 04:12:54;;;;;;;8.50;8.30;;;20.70;56.70;;;;;;5072601;28;21016;-52
2023/05/01 04:15:21;;;;;;;8.90;8.70;;;20.70;57.00;;;;;;5072515;28;20849;-57
2023/05/01 04:17:48;;;;;;;8.57;8.40;;;20.60;57.20;;;;;;5072301;28;20998;-56
2023/05/01 04:20:15;;;;;;;8.90;8.60;;;20.70;57.20;;;;;;5072053;28;20543;-55
2023/05/01 04:22:44;;;;;;;9.50;9.23;;;20.70;57.00;;;;;;5072372;28;20925;-53
2023/05/01 04:25:11;;;;;;;7.70;7.60;;;20.80;57.00;;;;;;5072284;28;20566;-52
2023/05/01 04:27:37;;;;;;;9.00;8.70;;;20.80;56.80;;;;;;5072139;28;20816;-52
2023/05/01 04:30:05;;;;;;;7.90;7.70;;;20.80;56.70;;;;;;5072184;28;20901;-55
2023/05/01 04:32:33;;;;;;;8.43;8.23;;;20.80;56.70;;;;;;5072037;28;20447;-56
2023/05/01 04:35:00;;;;;;;8.13;7.93;;;20.80;56.70;;;;;;5071891;28;20964;-54
2023/05/01 04:37:26;;;;;;;8.07;7.87;;;20.80;56.70;;;;;;5071909;28;20538;-56
2023/05/01 04:39:55;;;;;;;7.57;7.37;;;20.80;56.70;;;;;;5072049;28;20539;-55
2023/05/01 04:42:22;;;;;;;8.23;8.03;;;20.80;56.70;;;;;;5072080;28;20539;-51
2023/05/01 04:44:49;;;;;;;7.70;7.50;;;20.90;56.80;;;;;;5071634;28;20578;-55
2023/05/01 04:47:16;;;;;;;8.00;7.80;;;20.90;56.90;;;;;;5072036;28;20454;-53
2023/05/01 04:49:43;;;;;;;8.07;7.87;;;20.90;56.90;;;;;;5071689;28;20518;-55
2023/05/01 04:52:11;;;;;;;8.03;7.83;;;20.90;56.90;;;;;;5072052;28;20479;-57
2023/05/01 04:54:37;;;;;;;8.47;8.17;;;20.90;57.00;;;;;;5071913;28;20447;-55
2023/05/01 04:57:06;;;;;;;8.00;7.80;;;20.90;57.00;;;;;;5070734;28;20530;-56
2023/05/01 04:59:32;;;;;;;8.10;7.90;;;20.90;57.00;;;;;;5071563;28;20478;-53
2023/05/01 05:01:59;;;;;;;7.83;7.63;;;20.90;57.00;;;;;;5071744;28;20550;-53
2023/05/01 05:04:26;;;;;;;8.20;8.00;;;20.90;57.10;;;;;;5071635;28;20483;-53
2023/05/01 05:06:53;;;;;;;9.03;8.83;;;20.90;57.10;;;;;;5071566;28;20486;-54
2023/05/01 05:09:20;;;;;;;8.83;8.63;;;20.90;57.10;;;;;;5071270;28;20522;-53
2023/05/01 05:11:47;;;;;;;8.90;8.70;;;20.90;57.10;;;;;;5071636;28;20554;-55
2023/05/01 05:14:15;;;;;;;8.70;8.50;;;20.90;57.10;;;;;;5071711;28;20535;-54
2023/05/01 05:16:42;;;;;;;8.50;8.30;;;20.90;57.20;;;;;;5071372;28;20866;-50
2023/05/01 05:19:10;;;;;;;8.50;8.30;;;20.90;57.20;;;;;;5071498;28;20501;-52
2023/05/01 05:21:37;;;;;;;9.10;8.90;;;20.90;57.20;;;;;;5071602;28;20495;-50
2023/05/01 05:24:04;;;;;;;8.60;8.40;;;20.90;57.20;;;;;;5071377;28;20566;-53
2023/05/01 05:26:31;;;;;;;8.30;8.10;;;20.90;57.30;;;;;;5071407;28;20956;-51
2023/05/01 05:28:58;;;;;;;8.90;8.70;;;20.90;57.20;;;;;;5071467;28;20983;-51
2023/05/01 05:31:26;;;;;;;8.63;8.33;;;20.90;57.30;;;;;;5071893;28;20509;-52
2023/05/01 05:33:53;;;;;;;8.37;8.17;;;20.90;57.30;;;;;;5071375;28;20447;-50
2023/05/01 05:36:20;;;;;;;7.87;7.67;;;20.90;57.30;;;;;;5071551;28;20534;-52
2023/05/01 05:38:47;;;;;;;8.23;8.03;;;20.90;57.40;;;;;;5071173;28;20530;-50
2023/05/01 05:41:14;;;;;;;9.53;9.13;;;21.00;57.40;;;;;;5071289;28;21019;-61
2023/05/01 05:43:41;;;;;;;9.07;8.87;;;20.90;57.60;;;;;;5071320;28;20486;-51
2023/05/01 05:46:08;;;;;;;10.03;9.83;;;21.00;58.10;;;;;;5071062;28;20443;-51
2023/05/01 05:48:36;;;;;;;9.67;9.47;;;21.00;57.90;;;;;;5071209;28;20534;-52
2023/05/01 05:51:03;;;;;;;9.53;9.27;;;21.00;57.70;;;;;;5071261;28;20546;-54
2023/05/01 05:53:31;;;;;;;9.70;9.50;;;21.10;57.70;;;;;;5071241;28;20483;-53
2023/05/01 05:55:57;;;;;;;9.50;9.20;;;21.10;57.60;;;;;;5071032;28;20526;-55
2023/05/01 05:58:24;;;;;;;9.90;9.70;;;21.10;57.50;;;;;;5071102;28;20542;-57
2023/05/01 06:00:52;;;;;;;9.40;9.10;;;21.20;57.70;;;;;;5070920;28;20546;-56
2023/05/01 06:03:19;;;;;;;10.57;10.30;;;21.20;58.10;;;;;;5071076;28;20447;-58
2023/05/01 06:05:47;;;;;;;9.17;8.97;;;21.10;57.90;;;;;;5071129;28;20984;-60
2023/05/01 06:08:14;;;;;;;10.27;9.87;;;21.20;58.00;;;;;;5070879;28;20571;-57
2023/05/01 06:10:43;;;;;;;9.90;9.60;;;21.20;57.80;;;;;;5071121;28;20896;-57
2023/05/01 06:13:10;;;;;;;9.53;9.33;;;21.30;57.80;;;;;;5071224;28;20471;-57
2023/05/01 06:15:37;;;;;;;9.63;9.33;;;21.30;57.70;;;;;;5071020;28;20448;-58
2023/05/01 06:18:04;;;;;;;11.13;10.57;;;21.30;57.90;;;;;;5070389;28;21017;-57
2023/05/01 06:20:31;;;;;;;8.60;8.40;;;21.40;57.70;;;;;;5072677;28;20459;-51
2023/05/01 06:23:00;;;;;;;9.70;9.40;;;21.40;57.90;;;;;;5074720;28;20530;-51
2023/05/01 06:25:27;;;;;;;8.18;7.88;;;21.40;57.70;;;;;;5074271;28;20556;-56
2023/05/01 06:27:54;;;;;;;8.10;7.80;;;21.40;57.70;;;;;;5073616;28;20481;-61
2023/05/01 06:30:21;;;;;;;9.67;8.90;;;21.50;57.80;;;;;;5074095;28;20227;-58
2023/05/01 06:32:48;;;;;;;8.60;8.23;;;21.60;57.60;;;;;;5074567;28;20466;-60
2023/05/01 06:35:15;;;;;;;8.15;7.95;;;21.60;57.30;;;;;;5073711;28;20453;-64
2023/05/01 06:37:42;;;;;;;8.90;8.60;;;21.60;57.30;;;;;;5074295;28;20231;-67
2023/05/01 06:40:11;;;;;;;9.30;9.00;;;21.60;57.30;;;;;;5074168;28;20550;-59
2023/05/01 06:42:39;;;;;;;9.20;9.00;;;21.60;57.20;;;;;;5046245;28;20471;-59
2023/05/01 06:45:07;;;;;;;9.17;8.77;;;21.60;57.30;;;;;;5073937;28;20510;-62
2023/05/01 06:47:34;;;;;;;9.10;8.80;;;21.60;57.50;;;;;;5074191;28;20518;-63
2023/05/01 06:50:01;;;;;;;9.27;8.97;;;21.70;58.10;;;;;;5074108;28;20558;-64
2023/05/01 06:52:28;;;;;;;9.43;9.10;;;21.70;57.40;;;;;;5073946;28;20455;-62
2023/05/01 06:54:55;;;;;;;8.32;7.93;;;21.70;57.30;;;;;;5073748;28;20525;-64
2023/05/01 06:57:23;;;;;;;8.60;8.30;;;21.70;57.30;;;;;;5074241;28;20968;-61
2023/05/01 06:59:50;;;;;;;7.40;6.90;;;21.80;57.20;;;;;;5073354;28;20538;-63
2023/05/01 07:02:17;;;;;;;8.33;8.13;;;21.80;57.20;;;;;;5074167;28;20607;-61
2023/05/01 07:04:44;;;;;;;9.10;8.70;;;21.80;57.00;;;;;;5073997;28;20479;-61
2023/05/01 07:07:11;;;;;;;6.93;6.53;;;21.80;56.90;;;;;;5072826;28;20434;-62
2023/05/01 07:09:38;;;;;;;8.47;8.27;;;21.80;57.00;;;;;;5073900;28;20212;-65
2023/05/01 07:12:05;;;;;;;8.53;8.30;;;21.90;56.90;;;;;;5073984;28;20539;-65
2023/05/01 07:14:34;;;;;;;9.23;8.93;;;21.80;56.80;;;;;;5073587;28;20439;-59
2023/05/01 07:17:01;;;;;;;9.10;8.60;;;21.80;57.00;;;;;;5074871;28;20493;-61
2023/05/01 07:19:28;;;;;;;8.40;8.10;;;21.80;57.40;;;;;;5074872;28;20443;-62
2023/05/01 07:21:55;;;;;;;8.90;8.50;;;21.80;57.50;;;;;;5074046;28;20471;-62
2023/05/01 07:24:22;;;;;;;8.00;7.80;;;21.90;57.50;;;;;;5073938;28;20577;-62
2023/05/01 07:26:50;;;;;;;8.43;8.23;;;21.90;57.40;;;;;;5074576;28;20558;-62
2023/05/01 07:29:17;;;;;;;9.17;8.87;;;22.00;57.60;;;;;;5074390;28;20833;-61
2023/05/01 07:31:47;;;;;;;9.37;8.53;;;22.00;57.60;;;;;;5072847;28;20847;-63
2023/05/01 07:34:14;;;;;;;8.53;8.23;;;22.00;57.60;;;;;;5073357;28;20447;-61
2023/05/01 07:36:41;;;;;;;9.00;8.80;;;22.00;57.70;;;;;;5073402;28;20486;-63
2023/05/01 07:39:08;;;;;;;8.90;8.70;;;22.00;57.60;;;;;;5073181;28;20542;-61
2023/05/01 07:41:35;;;;;;;9.33;9.13;;;22.00;57.50;;;;;;5073288;28;20495;-64
2023/05/01 07:44:02;;;;;;;9.63;9.33;;;22.10;57.60;;;;;;5072829;28;20450;-62
2023/05/01 07:46:29;;;;;;;9.27;9.07;;;22.10;57.40;;;;;;5073164;28;20490;-63
2023/05/01 07:48:57;;;;;;;9.33;8.97;;;22.10;57.40;;;;;;5072964;28;20504;-63
2023/05/01 07:51:24;;;;;;;9.17;8.93;;;22.10;57.40;;;;;;5072817;28;20895;-65
2023/05/01 07:53:51;;;;;;;9.30;9.00;;;22.10;57.40;;;;;;5072821;28;20891;-65
2023/05/01 07:56:18;;;;;;;9.87;9.57;;;22.10;57.40;;;;;;5073036;28;20820;-63
2023/05/01 07:58:45;;;;;;;9.30;9.00;;;22.20;57.40;;;;;;5072867;28;20960;-63
2023/05/01 08:01:12;;;;;;;9.30;9.10;;;22.20;57.30;;;;;;5072798;28;20546;-64
2023/05/01 08:03:39;;;;;;;9.50;9.23;;;22.20;57.20;;;;;;5072514;28;21121;-61
2023/05/01 08:06:07;;;;;;;9.33;9.13;;;22.20;57.30;;;;;;5072674;28;20569;-62
2023/05/01 08:08:34;;;;;;;9.23;9.03;;;22.20;57.10;;;;;;5072556;28;20443;-64
2023/05/01 08:11:01;;;;;;;10.90;10.43;;;22.20;57.10;;;;;;5072580;28;20491;-64
2023/05/01 08:13:28;;;;;;;9.40;9.20;;;22.20;57.00;;;;;;5072502;28;20501;-63
2023/05/01 08:15:57;;;;;;;10.23;10.03;;;22.20;57.00;;;;;;5072337;28;20522;-64
2023/05/01 08:18:24;;;;;;;9.80;9.60;;;22.30;57.10;;;;;;5072375;28;20538;-61
2023/05/01 08:20:51;;;;;;;10.17;9.87;;;22.30;56.90;;;;;;5072319;28;20498;-60
2023/05/01 08:23:20;;;;;;;10.37;9.87;;;22.30;56.50;;;;;;5072433;28;20592;-59
2023/05/01 08:25:49;;;;;;;10.17;9.87;;;22.30;56.80;;;;;;5072067;28;20479;-60
2023/05/01 08:28:19;;;;;;;10.20;9.90;;;22.30;57.00;;;;;;5072047;28;20444;-62
2023/05/01 08:30:47;;;;;;;9.90;9.60;;;22.30;57.10;;;;;;5072127;28;20486;-62
2023/05/01 08:33:15;;;;;;;10.70;10.40;;;22.40;57.10;;;;;;5072182;28;20447;-61
2023/05/01 08:35:41;;;;;;;9.83;9.63;;;22.30;57.00;;;;;;5071840;28;20443;-62
2023/05/01 08:38:08;;;;;;;9.90;9.60;;;22.40;57.10;;;;;;5071847;28;20475;-61
2023/05/01 08:40:38;;;;;;;10.60;10.20;;;22.40;57.00;;;;;;5071996;28;21150;-62
2023/05/01 08:43:05;;;;;;;10.13;9.83;;;22.40;57.00;;;;;;5071624;28;20523;-59
2023/05/01 08:45:34;;;;;;;9.50;9.30;;;22.40;56.80;;;;;;5071900;28;20570;-60
2023/05/01 08:48:05;;;;;;;10.20;10.00;;;22.40;56.80;;;;;;5071490;28;20447;-61
2023/05/01 08:50:35;;;;;;;10.30;10.10;;;22.40;56.70;;;;;;5071960;28;20497;-63
2023/05/01 08:53:03;;;;;;;10.23;9.97;;;22.40;56.60;;;;;;5071957;28;20930;-61
2023/05/01 08:55:31;;;;;;;10.73;10.33;;;22.40;56.60;;;;;;5071758;28;20444;-62
2023/05/01 08:58:01;;;;;;;10.00;9.70;;;22.50;56.60;;;;;;5071430;28;20475;-59
2023/05/01 09:00:29;;;;;;;10.37;10.07;;;22.50;56.50;;;;;;5071842;28;20475;-64
2023/05/01 09:03:01;;;;;;;9.73;9.47;;;22.50;56.70;;;;;;5071817;28;20466;-63
2023/05/01 09:05:28;;;;;;;10.43;10.13;;;22.50;56.50;;;;;;5071657;28;20479;-65
2023/05/01 09:07:56;;;;;;;9.70;9.50;;;22.50;56.50;;;;;;5071306;28;20547;-65
2023/05/01 09:10:25;;;;;;;9.50;9.30;;;22.50;56.50;;;;;;5071315;28;20510;-64
2023/05/01 09:12:56;;;;;;;9.23;9.03;;;22.50;56.40;;;;;;5071784;28;20447;-63
2023/05/01 09:15:26;;;;;;;10.30;10.00;;;22.50;56.40;;;;;;5071753;28;20443;-65
2023/05/01 09:17:53;;;;;;;10.20;10.00;;;22.50;56.40;;;;;;5071583;28;20447;-64
2023/05/01 09:20:21;;;;;;;10.40;10.10;;;22.50;56.40;;;;;;5071176;28;20550;-67
2023/05/01 09:22:50;;;;;;;9.70;9.50;;;22.50;56.40;;;;;;5071666;28;20812;-64
2023/05/01 09:25:17;;;;;;;10.80;10.50;;;22.50;56.40;;;;;;5071471;28;20565;-66
2023/05/01 09:27:45;;;;;;;10.90;10.50;;;22.50;56.40;;;;;;5071186;28;20439;-67
2023/05/01 09:30:31;;;;;;;11.13;10.83;;;22.50;56.40;;;;;;5070647;28;20555;-65
2023/05/01 09:33:05;;;;;;;10.50;10.20;;;22.50;56.40;;;;;;5071072;28;20534;-62
2023/05/01 09:35:33;;;;;;;10.10;9.90;;;22.50;56.40;;;;;;5050985;28;20933;-65
2023/05/01 09:37:59;;;;;;;10.00;9.70;;;22.50;56.20;;;;;;5071478;28;20489;-68
2023/05/01 09:40:27;;;;;;;10.37;10.07;;;22.50;56.30;;;;;;5071459;28;20890;-67
2023/05/01 09:42:55;;;;;;;10.00;9.80;;;22.50;56.40;;;;;;5071172;28;20443;-67
2023/05/01 09:45:23;;;;;;;9.93;9.73;;;22.60;56.50;;;;;;5071207;28;21091;-66
2023/05/01 09:47:52;;;;;;;11.10;10.80;;;22.60;56.50;;;;;;5071199;28;20836;-68
2023/05/01 09:50:30;;;;;;;10.13;9.83;;;22.60;56.70;;;;;;5071346;28;20463;-65
2023/05/01 09:52:57;;;;;;;9.97;9.77;;;22.60;56.50;;;;;;5071009;28;20821;-67
2023/05/01 09:55:24;;;;;;;9.80;9.60;;;22.60;56.50;;;;;;5074438;28;20494;-67
2023/05/01 09:57:51;;;;;;;9.40;9.20;;;22.60;56.40;;;;;;5075229;28;20482;-67
2023/05/01 10:00:20;;;;;;;10.67;9.93;;;22.60;56.50;;;;;;5075104;28;20459;-65
2023/05/01 10:02:49;;;;;;;9.97;9.77;;;22.60;56.50;;;;;;5075074;28;20622;-65
2023/05/01 10:05:18;;;;;;;10.20;9.90;;;22.60;56.40;;;;;;5074765;28;20475;-63
2023/05/01 10:07:59;;;;;;;10.50;10.10;;;22.60;56.40;;;;;;5074826;28;20474;-62
2023/05/01 10:10:26;;;;;;;10.00;9.70;;;22.60;56.30;;;;;;5074928;28;20554;-64
2023/05/01 10:12:53;;;;;;;10.60;10.30;;;22.60;56.20;;;;;;5074829;28;20876;-64
2023/05/01 10:15:20;;;;;;;10.33;10.13;;;22.60;56.40;;;;;;5074864;28;20469;-58
2023/05/01 10:17:51;;;;;;;10.40;10.20;;;22.60;56.20;;;;;;5074650;28;20451;-63
2023/05/01 10:20:19;;;;;;;10.23;10.03;;;22.70;56.40;;;;;;5074794;28;20462;-63
2023/05/01 10:22:46;;;;;;;9.83;9.53;;;22.60;56.20;;;;;;5074570;28;20800;-59
2023/05/01 10:25:14;;;;;;;10.37;9.97;;;22.70;56.40;;;;;;5074537;28;20529;-59
2023/05/01 10:27:41;;;;;;;10.90;10.60;;;22.70;56.30;;;;;;5074169;28;20538;-60
2023/05/01 10:30:09;;;;;;;10.00;9.80;;;22.70;56.30;;;;;;5074383;28;20550;-63
2023/05/01 10:32:37;;;;;;;10.83;10.53;;;22.70;56.30;;;;;;5074553;28;20479;-63
2023/05/01 10:35:11;;;;;;;10.63;10.43;;;22.70;56.40;;;;;;5074204;28;20522;-64
2023/05/01 10:37:47;;;;;;;10.80;10.50;;;22.70;56.20;;;;;;5074288;28;20867;-60
2023/05/01 10:40:46;;;;;;;10.83;10.53;;;22.60;56.10;;;;;;5074246;28;20498;-63
2023/05/01 10:43:15;;;;;;;10.80;10.40;;;22.60;56.20;;;;;;5074372;28;20442;-60
2023/05/01 10:45:43;;;;;;;10.60;10.30;;;22.70;56.20;;;;;;5073693;28;20524;-61
2023/05/01 10:48:10;;;;;;;10.67;10.47;;;22.60;56.20;;;;;;5073920;28;20474;-61
2023/05/01 10:51:10;;;;;;;10.60;10.37;;;22.60;56.30;;;;;;5074212;28;20554;-63
2023/05/01 10:53:40;;;;;;;10.13;9.93;;;22.70;56.40;;;;;;5074211;28;20538;-63
2023/05/01 10:56:43;;;;;;;10.60;10.37;;;22.70;56.50;;;;;;5074122;28;20518;-64
2023/05/01 10:59:11;;;;;;;10.23;10.03;;;22.60;56.30;;;;;;5073944;28;20465;-63
2023/05/01 11:01:39;;;;;;;10.03;9.83;;;22.60;56.20;;;;;;5074013;28;20980;-61
2023/05/01 11:04:08;;;;;;;10.70;10.40;;;22.60;56.50;;;;;;5073945;28;20954;-62
2023/05/01 11:06:36;;;;;;;10.20;10.00;;;22.50;56.60;;;;;;5073055;28;20484;-62
2023/05/01 11:09:37;;;;;;;9.90;9.60;;;22.50;56.70;;;;;;5073813;28;20448;-62
2023/05/01 11:12:05;;;;;;;10.13;9.87;;;22.40;56.80;;;;;;5073885;28;20450;-60
2023/05/01 11:15:03;;;;;;;10.50;10.20;;;22.40;57.10;;;;;;5073856;28;20447;-61
2023/05/01 11:17:48;;;;;;;10.30;9.90;;;22.30;57.30;;;;;;5073697;28;20810;-58
2023/05/01 11:20:49;;;;;;;10.17;9.77;;;22.40;57.90;;;;;;5073665;28;20489;-59
2023/05/01 11:23:24;;;;;;;10.13;9.73;;;22.30;57.70;;;;;;5073696;28;20823;-61
2023/05/01 11:26:07;;;;;;;9.90;9.60;;;22.40;58.00;;;;;;5073484;28;20536;-62
2023/05/01 11:28:34;;;;;;;10.23;9.93;;;22.40;57.80;;;;;;5073225;28;20508;-61
2023/05/01 11:31:02;;;;;;;10.10;9.80;;;22.40;58.00;;;;;;5115386;22;20541;-64
2023/05/01 11:33:29;;;;;;;9.70;9.50;;;22.40;58.10;;;;;;5073461;28;20463;-64
2023/05/01 11:36:02;;;;;;;9.30;9.10;;;22.40;58.20;;;;;;5073573;28;20435;-64
2023/05/01 11:38:29;;;;;;;10.37;9.97;;;22.40;58.20;;;;;;5073322;28;20958;-64
2023/05/01 11:41:00;;;;;;;9.67;9.43;;;22.40;58.20;;;;;;5073324;28;20905;-63
2023/05/01 11:43:27;;;;;;;10.10;9.80;;;22.40;58.40;;;;;;5073185;28;20451;-64
2023/05/01 11:46:00;;;;;;;11.00;10.50;;;22.50;58.20;;;;;;5073253;28;20483;-58
2023/05/01 11:48:29;;;;;;;10.67;10.37;;;22.40;58.00;;;;;;5072962;28;20457;-62
2023/05/01 11:50:56;;;;;;;9.90;9.60;;;22.50;57.90;;;;;;5073048;28;20964;-63
2023/05/01 11:53:23;;;;;;;9.30;8.90;;;22.50;58.00;;;;;;5072156;28;20438;-62
2023/05/01 11:55:50;;;;;;;10.33;9.93;;;22.50;58.00;;;;;;5072977;28;20535;-60
2023/05/01 11:58:32;;;;;;;10.40;10.10;;;22.50;57.90;;;;;;5072850;28;20450;-62
2023/05/01 12:00:59;;;;;;;9.70;9.50;;;22.50;57.90;;;;;;5072916;28;20467;-59
2023/05/01 12:03:26;;;;;;;10.70;10.40;;;22.50;57.80;;;;;;5071935;28;20533;-62
2023/05/01 12:05:53;;;;;;;10.60;10.30;;;22.60;57.70;;;;;;5072852;28;20554;-63
2023/05/01 12:08:21;;;;;;;9.97;9.77;;;22.50;57.80;;;;;;5072630;28;20900;-64
2023/05/01 12:10:50;;;;;;;11.73;11.33;;;22.50;57.90;;;;;;5072640;28;21027;-61
2023/05/01 12:13:19;;;;;;;10.30;9.80;;;22.50;58.30;;;;;;5072384;28;20816;-60
2023/05/01 12:15:50;;;;;;;10.73;10.33;;;22.60;58.20;;;;;;5072509;28;20518;-57
2023/05/01 12:18:17;;;;;;;10.93;10.17;;;22.50;58.10;;;;;;5071491;28;20542;-59
2023/05/01 12:20:46;;;;;;;10.27;9.90;;;22.60;58.20;;;;;;5072338;28;20900;-60
2023/05/01 12:23:14;;;;;;;10.20;9.90;;;22.60;57.80;;;;;;5072190;28;21010;-61
2023/05/01 12:25:42;;;;;;;10.07;9.77;;;22.60;57.50;;;;;;5072328;28;20526;-60
2023/05/01 12:28:10;;;;;;;9.87;9.57;;;22.60;57.40;;;;;;5072340;28;20530;-64
2023/05/01 12:30:39;;;;;;;10.93;10.53;;;22.60;57.50;;;;;;5072256;28;20490;-63
2023/05/01 12:33:12;;;;;;;9.67;9.30;;;22.60;57.40;;;;;;5072304;28;20520;-62
2023/05/01 12:35:39;;;;;;;10.00;9.60;;;22.60;57.40;;;;;;5071633;28;21019;-62
2023/05/01 12:38:14;;;;;;;9.77;9.47;;;22.50;57.30;;;;;;5072034;28;20454;-62
2023/05/01 12:40:50;;;;;;;10.60;10.20;;;22.60;57.20;;;;;;5071969;28;20537;-64
2023/05/01 12:43:18;;;;;;;9.43;9.13;;;22.60;57.30;;;;;;5072342;28;20442;-61
2023/05/01 12:45:50;;;;;;;9.80;9.50;;;22.60;57.10;;;;;;5071588;28;20551;-56
2023/05/01 12:48:17;;;;;;;9.80;9.50;;;22.60;57.30;;;;;;5071851;28;20859;-57
2023/05/01 12:50:45;;;;;;;9.80;9.50;;;22.60;57.30;;;;;;5071872;28;20499;-59
2023/05/01 12:53:12;;;;;;;9.80;9.50;;;22.60;57.10;;;;;;5071858;28;20447;-59